Time;durP1;ratioP1;P1;durP2;ratioP2;P2;SDS_P1;SDS_P2;PMS_P1;PMS_P2;Temp;Humidity;BMP_temperature;BMP_pressure;BME280_temperature;BME280_humidity;BME280_pressure;Samples;Min_cycle;Max_cycle;Signal;HPM_P1;HPM_P2
2022/03/02 00:01:09;;;;;;;29.05;20.13;;;;;;;0.94;93.46;102859.03;4972455;28;20213;-43
2022/03/02 00:03:36;;;;;;;31.23;20.00;;;;;;;0.98;94.11;102854.75;4972312;28;20170;-45
2022/03/02 00:06:01;;;;;;;28.20;19.45;;;;;;;0.93;94.37;102859.00;4972254;28;20198;-45
2022/03/02 00:08:26;;;;;;;28.27;19.77;;;;;;;0.73;94.25;102864.47;4972273;28;20654;-44
2022/03/02 00:10:52;;;;;;;31.42;19.80;;;;;;;0.59;94.45;102858.72;4972431;28;20190;-41
2022/03/02 00:13:17;;;;;;;31.83;20.05;;;;;;;0.65;95.06;102858.00;4971662;28;20185;-44
2022/03/02 00:15:43;;;;;;;30.88;19.52;;;;;;;0.58;95.16;102856.91;4972519;28;20186;-43
2022/03/02 00:18:08;;;;;;;32.20;20.38;;;;;;;0.65;95.47;102857.13;4972012;28;20741;-43
2022/03/02 00:20:34;;;;;;;29.83;19.25;;;;;;;0.62;94.51;102855.28;4971929;28;20173;-44
2022/03/02 00:23:00;;;;;;;29.65;20.42;;;;;;;0.44;95.07;102855.53;4971962;28;20229;-44
2022/03/02 00:25:25;;;;;;;32.67;20.83;;;;;;;0.35;95.63;102861.38;4972382;28;20182;-42
2022/03/02 00:27:51;;;;;;;33.05;21.23;;;;;;;0.39;95.61;102860.66;4972169;28;20171;-43
2022/03/02 00:30:16;;;;;;;29.60;20.95;;;;;;;0.39;95.82;102862.34;4972385;28;20177;-43
2022/03/02 00:32:42;;;;;;;33.22;20.27;;;;;;;0.36;95.72;102855.25;4970944;28;20294;-45
2022/03/02 00:35:08;;;;;;;31.17;20.70;;;;;;;0.33;95.88;102848.97;4971911;28;20174;-44
2022/03/02 00:37:33;;;;;;;33.45;21.48;;;;;;;0.27;95.94;102843.47;4971967;28;20210;-42
2022/03/02 00:39:59;;;;;;;31.08;20.27;;;;;;;0.32;95.49;102841.91;4971775;28;20170;-43
2022/03/02 00:42:24;;;;;;;27.17;19.13;;;;;;;0.38;96.18;102831.56;4954287;28;20305;-47
2022/03/02 00:44:50;;;;;;;27.38;18.88;;;;;;;0.35;95.49;102835.00;4971801;28;20181;-42
2022/03/02 00:47:15;;;;;;;31.63;21.17;;;;;;;0.15;95.51;102836.00;4971855;28;20158;-43
2022/03/02 00:49:41;;;;;;;36.20;21.63;;;;;;;0.01;95.60;102832.84;4971633;28;20173;-46
2022/03/02 00:52:10;;;;;;;29.98;20.25;;;;;;;0.08;96.21;102828.72;4971392;28;20252;-45
2022/03/02 00:54:35;;;;;;;32.92;20.08;;;;;;;0.17;95.87;102821.13;4971759;28;20172;-44
2022/03/02 00:57:01;;;;;;;33.17;21.25;;;;;;;0.16;95.74;102827.25;4971404;28;20293;-45
2022/03/02 00:59:26;;;;;;;30.48;19.92;;;;;;;0.19;95.70;102840.53;4971904;28;20173;-42
2022/03/02 01:01:52;;;;;;;29.15;19.95;;;;;;;0.23;95.57;102837.19;4971484;28;20194;-43
2022/03/02 01:04:18;;;;;;;31.58;21.13;;;;;;;0.08;95.59;102834.88;4971383;28;20221;-46
2022/03/02 01:06:43;;;;;;;32.30;21.08;;;;;;;-0.22;96.00;102832.88;4971349;28;20569;-46
2022/03/02 01:09:09;;;;;;;37.92;22.65;;;;;;;-0.17;97.00;102840.97;4971809;28;20297;-41
2022/03/02 01:11:34;;;;;;;29.95;20.23;;;;;;;-0.17;96.72;102846.22;4971743;28;20197;-44
2022/03/02 01:13:59;;;;;;;37.80;22.50;;;;;;;-0.22;96.75;102853.03;4971517;28;20173;-47
2022/03/02 01:16:25;;;;;;;38.85;23.42;;;;;;;-0.19;97.61;102847.91;4971544;28;20174;-45
2022/03/02 01:18:50;;;;;;;35.80;21.98;;;;;;;-0.34;98.43;102826.25;4971507;28;20197;-41
2022/03/02 01:21:16;;;;;;;32.17;21.52;;;;;;;-0.29;98.43;102827.31;4970983;28;20209;-46
2022/03/02 01:23:41;;;;;;;38.38;22.10;;;;;;;-0.27;98.79;102830.91;4970912;28;20166;-43
2022/03/02 01:26:07;;;;;;;34.35;22.08;;;;;;;-0.25;98.92;102829.22;4971430;28;20692;-42
2022/03/02 01:28:32;;;;;;;40.28;22.33;;;;;;;-0.19;98.83;102820.69;4971230;28;20249;-44
2022/03/02 01:30:58;;;;;;;39.30;22.73;;;;;;;-0.28;98.10;102827.38;4971485;28;20202;-42
2022/03/02 01:33:23;;;;;;;35.03;21.75;;;;;;;-0.17;98.56;102817.25;4971009;28;20213;-44
2022/03/02 01:35:49;;;;;;;36.15;22.30;;;;;;;-0.31;98.92;102810.56;4971905;28;20317;-41
2022/03/02 01:38:14;;;;;;;34.00;21.55;;;;;;;-0.46;99.06;102817.03;4971473;28;20241;-46
2022/03/02 01:40:40;;;;;;;31.85;19.67;;;;;;;-0.38;98.95;102819.06;4971039;28;20185;-43
2022/03/02 01:43:06;;;;;;;34.55;21.02;;;;;;;-0.30;98.71;102826.44;4970758;28;20248;-45
2022/03/02 01:45:32;;;;;;;34.83;21.58;;;;;;;-0.47;99.00;102825.75;4937784;28;20590;-43
2022/03/02 01:48:01;;;;;;;37.05;22.73;;;;;;;-0.53;98.68;102827.25;4971470;28;20182;-43
2022/03/02 01:50:29;;;;;;;32.35;20.90;;;;;;;-0.56;99.13;102830.66;4971012;28;20317;-47
2022/03/02 01:52:54;;;;;;;33.67;21.67;;;;;;;-0.44;99.34;102832.88;4970795;28;20644;-42
2022/03/02 01:55:20;;;;;;;33.90;20.52;;;;;;;-0.36;99.48;102825.28;4971481;28;20205;-41
2022/03/02 01:57:45;;;;;;;34.13;20.60;;;;;;;-0.31;98.87;102826.34;4970609;28;20245;-46
2022/03/02 02:00:18;;;;;;;33.00;21.17;;;;;;;-0.31;98.22;102821.97;4971303;28;20680;-42
2022/03/02 02:02:43;;;;;;;33.53;19.70;;;;;;;-0.25;98.89;102823.97;4970493;28;20289;-45
2022/03/02 02:05:09;;;;;;;32.47;21.25;;;;;;;-0.32;98.50;102830.72;4970812;28;20261;-43
2022/03/02 02:07:35;;;;;;;35.58;23.20;;;;;;;-0.42;98.47;102837.38;4971359;28;20170;-42
2022/03/02 02:10:01;;;;;;;34.67;22.17;;;;;;;-0.37;99.12;102821.75;4973680;28;20186;-45
2022/03/02 02:12:26;;;;;;;32.75;20.85;;;;;;;-0.43;98.23;102825.03;4973894;28;20186;-44
2022/03/02 02:14:52;;;;;;;37.03;23.13;;;;;;;-0.55;99.01;102821.91;4974873;28;20184;-44
2022/03/02 02:17:17;;;;;;;35.97;21.92;;;;;;;-0.51;99.08;102826.47;4974378;28;20193;-43
2022/03/02 02:19:42;;;;;;;34.22;22.35;;;;;;;-0.49;99.33;102819.53;4974380;28;20170;-44
2022/03/02 02:22:08;;;;;;;37.33;22.85;;;;;;;-0.64;99.25;102821.56;4973639;28;20684;-48
2022/03/02 02:24:33;;;;;;;33.40;21.48;;;;;;;-0.64;99.81;102806.66;4974549;28;20178;-43
2022/03/02 02:27:00;;;;;;;32.00;20.90;;;;;;;-0.58;99.35;102813.03;4974403;28;20705;-44
2022/03/02 02:29:28;;;;;;;35.55;22.50;;;;;;;-0.63;99.18;102807.56;4974074;28;20166;-44
2022/03/02 02:31:53;;;;;;;38.47;22.95;;;;;;;-0.66;99.78;102810.06;4973302;28;20190;-45
2022/03/02 02:34:19;;;;;;;31.63;20.60;;;;;;;-0.56;99.43;102809.59;4973808;28;20300;-44
2022/03/02 02:36:45;;;;;;;39.08;22.50;;;;;;;-0.53;99.10;102809.72;4974288;28;20205;-42
2022/03/02 02:39:11;;;;;;;33.53;21.55;;;;;;;-0.64;99.16;102795.22;4974460;28;20343;-44
2022/03/02 02:41:36;;;;;;;36.90;23.65;;;;;;;-0.75;99.23;102799.19;4973169;28;20672;-43
2022/03/02 02:44:02;;;;;;;42.45;24.48;;;;;;;-0.96;99.41;102789.59;4989609;28;20185;-43
2022/03/02 02:46:27;;;;;;;38.22;22.92;;;;;;;-0.96;99.61;102781.69;4992606;28;20256;-46
2022/03/02 02:48:52;;;;;;;37.60;23.80;;;;;;;-0.98;99.43;102786.00;4993387;28;20261;-44
2022/03/02 02:51:18;;;;;;;35.53;22.30;;;;;;;-0.91;100.00;102777.50;4993422;28;20273;-43
2022/03/02 02:53:44;;;;;;;34.60;21.60;;;;;;;-0.86;99.69;102780.31;4992696;28;20182;-46
2022/03/02 02:56:09;;;;;;;36.03;22.00;;;;;;;-0.80;100.00;102771.78;4993283;28;20176;-43
2022/03/02 02:58:35;;;;;;;39.53;22.17;;;;;;;-0.84;100.00;102766.38;4992757;28;20210;-43
2022/03/02 03:01:02;;;;;;;39.25;23.63;;;;;;;-1.01;100.00;102762.19;4992828;28;20259;-45
2022/03/02 03:03:27;;;;;;;34.13;22.05;;;;;;;-0.89;100.00;102760.06;4992600;28;20188;-45
2022/03/02 03:05:53;;;;;;;37.50;22.38;;;;;;;-0.89;100.00;102756.53;4992054;28;20181;-44
2022/03/02 03:08:19;;;;;;;33.60;21.55;;;;;;;-1.06;99.75;102740.97;4993383;28;20204;-44
2022/03/02 03:10:45;;;;;;;34.55;21.65;;;;;;;-1.18;99.36;102745.75;4992832;28;20185;-45
2022/03/02 03:13:11;;;;;;;37.78;22.33;;;;;;;-1.31;99.34;102749.59;4992234;28;20712;-45
2022/03/02 03:15:38;;;;;;;34.65;21.73;;;;;;;-1.25;100.00;102741.03;4975244;28;20276;-44
2022/03/02 03:18:05;;;;;;;37.83;22.40;;;;;;;-1.28;99.74;102741.81;4992486;28;20272;-44
2022/03/02 03:20:32;;;;;;;31.73;21.05;;;;;;;-1.14;100.00;102742.38;4992478;28;20257;-46
2022/03/02 03:22:58;;;;;;;38.78;22.60;;;;;;;-1.21;100.00;102728.94;4992082;28;20664;-45
2022/03/02 03:25:24;;;;;;;36.67;21.65;;;;;;;-1.19;100.00;102732.53;4992519;28;20162;-43
2022/03/02 03:27:51;;;;;;;37.13;22.42;;;;;;;-1.18;100.00;102732.59;4992330;28;20169;-42
2022/03/02 03:30:19;;;;;;;38.78;23.45;;;;;;;-1.16;100.00;102743.16;4992328;28;20562;-42
2022/03/02 03:32:45;;;;;;;35.80;21.42;;;;;;;-1.11;100.00;102733.72;4976093;28;20263;-42
2022/03/02 03:35:12;;;;;;;35.75;23.08;;;;;;;-1.14;100.00;102736.22;4972818;28;20585;-43
2022/03/02 03:37:39;;;;;;;37.25;23.88;;;;;;;-1.30;99.89;102738.22;4973013;28;20209;-44
2022/03/02 03:40:06;;;;;;;38.45;23.58;;;;;;;-1.39;99.48;102731.72;4972683;28;20650;-44
2022/03/02 03:42:32;;;;;;;38.55;23.45;;;;;;;-1.46;100.00;102723.56;4972089;28;20202;-45
2022/03/02 03:44:57;;;;;;;38.38;23.17;;;;;;;-1.46;100.00;102733.19;4973204;28;20653;-44
2022/03/02 03:47:22;;;;;;;41.78;23.52;;;;;;;-1.58;100.00;102730.91;4972356;28;20170;-43
2022/03/02 03:49:48;;;;;;;46.15;25.58;;;;;;;-1.79;100.00;102730.00;4972630;28;20221;-45
2022/03/02 03:52:13;;;;;;;42.38;24.27;;;;;;;-1.75;100.00;102716.16;4972063;28;20273;-44
2022/03/02 03:54:38;;;;;;;42.55;25.10;;;;;;;-1.76;100.00;102711.75;4972543;28;20208;-42
2022/03/02 03:57:05;;;;;;;45.17;25.83;;;;;;;-1.82;100.00;102712.38;4972297;28;20662;-45
2022/03/02 03:59:31;;;;;;;44.85;25.27;;;;;;;-1.65;100.00;102718.34;4972643;28;20649;-44
2022/03/02 04:01:56;;;;;;;42.47;24.88;;;;;;;-1.58;100.00;102709.88;4971811;28;20236;-46
2022/03/02 04:04:22;;;;;;;42.85;25.52;;;;;;;-1.47;100.00;102705.09;4972367;28;20173;-44
2022/03/02 04:06:47;;;;;;;45.25;25.42;;;;;;;-1.39;100.00;102711.56;4972276;28;20471;-43
2022/03/02 04:09:13;;;;;;;41.15;24.40;;;;;;;-1.38;100.00;102710.72;4972215;28;20241;-45
2022/03/02 04:11:38;;;;;;;41.78;25.08;;;;;;;-1.33;100.00;102703.94;4971359;28;20216;-45
2022/03/02 04:14:04;;;;;;;45.17;26.58;;;;;;;-1.41;100.00;102707.97;4972216;28;20186;-44
2022/03/02 04:16:29;;;;;;;41.33;24.92;;;;;;;-1.39;100.00;102706.31;4971690;28;20210;-46
2022/03/02 04:18:55;;;;;;;42.05;24.85;;;;;;;-1.32;100.00;102713.59;4971911;28;20194;-44
2022/03/02 04:21:20;;;;;;;44.20;26.10;;;;;;;-1.41;100.00;102699.19;4972001;28;20206;-42
2022/03/02 04:23:46;;;;;;;44.72;26.40;;;;;;;-1.50;100.00;102697.09;4971446;28;20237;-43
2022/03/02 04:26:12;;;;;;;41.63;23.92;;;;;;;-1.68;100.00;102695.47;4971729;28;20166;-43
2022/03/02 04:28:37;;;;;;;42.28;25.35;;;;;;;-1.59;100.00;102696.72;4971548;28;20243;-43
2022/03/02 04:31:03;;;;;;;41.25;23.98;;;;;;;-1.55;100.00;102696.91;4970897;28;20198;-45
2022/03/02 04:33:28;;;;;;;41.08;24.75;;;;;;;-1.58;100.00;102694.13;4971481;28;20317;-44
2022/03/02 04:35:54;;;;;;;44.08;25.63;;;;;;;-1.51;100.00;102695.28;4971413;28;20661;-45
2022/03/02 04:38:19;;;;;;;43.30;24.13;;;;;;;-1.50;100.00;102699.72;4971719;28;20268;-43
2022/03/02 04:40:44;;;;;;;42.42;23.08;;;;;;;-1.48;100.00;102700.69;4978520;28;20304;-44
2022/03/02 04:43:10;;;;;;;43.20;24.83;;;;;;;-1.56;100.00;102696.81;4989812;28;20188;-44
2022/03/02 04:45:35;;;;;;;38.92;23.95;;;;;;;-1.50;100.00;102707.59;4990804;28;20189;-44
2022/03/02 04:48:01;;;;;;;40.60;23.92;;;;;;;-1.53;100.00;102695.22;4992825;28;20187;-44
2022/03/02 04:50:27;;;;;;;41.72;24.60;;;;;;;-1.80;100.00;102699.31;5000382;28;20179;-43
2022/03/02 04:52:55;;;;;;;39.88;22.88;;;;;;;-1.78;100.00;102705.53;4990407;28;20664;-43
2022/03/02 04:55:21;;;;;;;42.20;23.95;;;;;;;-1.95;100.00;102694.28;4990307;28;20185;-44
2022/03/02 04:57:52;;;;;;;40.28;25.05;;;;;;;-2.12;100.00;102701.44;4990856;28;20198;-43
2022/03/02 05:00:28;;;;;;;43.78;24.42;;;;;;;-2.03;100.00;102701.84;4990240;28;20172;-43
2022/03/02 05:02:55;;;;;;;43.80;25.35;;;;;;;-1.96;100.00;102695.16;4990450;28;20608;-44
2022/03/02 05:05:22;;;;;;;44.42;24.50;;;;;;;-1.87;100.00;102698.16;4972974;28;20181;-45
2022/03/02 05:07:49;;;;;;;47.25;26.67;;;;;;;-2.01;100.00;102702.81;4990330;28;20649;-43
2022/03/02 05:10:16;;;;;;;45.70;28.52;;;;;;;-2.08;100.00;102696.41;4990711;28;20186;-45
2022/03/02 05:12:42;;;;;;;44.70;26.55;;;;;;;-1.97;100.00;102706.47;4990112;28;20292;-44
2022/03/02 05:15:09;;;;;;;45.15;27.38;;;;;;;-1.98;100.00;102705.56;4990795;28;20248;-44
2022/03/02 05:17:36;;;;;;;48.70;28.10;;;;;;;-1.94;100.00;102706.63;4990875;28;20193;-44
2022/03/02 05:20:03;;;;;;;50.47;27.30;;;;;;;-2.10;100.00;102700.69;4990312;28;20188;-44
2022/03/02 05:22:28;;;;;;;55.58;29.02;;;;;;;-2.21;100.00;102706.28;4989970;28;20247;-44
2022/03/02 05:24:54;;;;;;;45.40;27.90;;;;;;;-2.18;100.00;102709.97;4990667;28;20185;-45
2022/03/02 05:27:19;;;;;;;50.50;28.13;;;;;;;-2.18;100.00;102707.34;4990548;28;20232;-46
2022/03/02 05:29:44;;;;;;;47.08;27.90;;;;;;;-2.12;100.00;102698.81;4990697;28;20169;-43
2022/03/02 05:32:10;;;;;;;44.97;26.70;;;;;;;-2.05;100.00;102710.50;4978531;28;20198;-44
2022/03/02 05:34:36;;;;;;;45.05;26.67;;;;;;;-2.02;100.00;102711.53;4970948;28;20224;-44
2022/03/02 05:37:02;;;;;;;46.10;28.20;;;;;;;-1.97;100.00;102717.91;4970756;28;20250;-44
2022/03/02 05:39:28;;;;;;;49.75;28.23;;;;;;;-2.03;100.00;102721.94;4970934;28;20548;-44
2022/03/02 05:41:54;;;;;;;44.72;26.42;;;;;;;-2.01;100.00;102720.28;4970486;28;20384;-45
2022/03/02 05:44:19;;;;;;;47.50;27.00;;;;;;;-1.99;100.00;102726.50;4972735;28;20257;-45
2022/03/02 05:46:45;;;;;;;49.28;27.83;;;;;;;-2.08;100.00;102727.00;4974881;28;20166;-44
2022/03/02 05:49:10;;;;;;;48.42;26.63;;;;;;;-2.21;100.00;102724.66;4974560;28;20158;-46
2022/03/02 05:51:37;;;;;;;49.90;28.08;;;;;;;-2.39;100.00;102730.00;4973970;28;20190;-44
2022/03/02 05:54:04;;;;;;;48.95;28.27;;;;;;;-2.41;100.00;102721.16;4974155;28;20186;-45
2022/03/02 05:56:32;;;;;;;54.97;29.25;;;;;;;-2.37;100.00;102715.22;4973907;28;20328;-43
2022/03/02 05:58:58;;;;;;;52.30;28.25;;;;;;;-2.42;100.00;102698.38;4974419;28;20661;-48
2022/03/02 06:01:24;;;;;;;52.75;28.02;;;;;;;-2.48;100.00;102696.34;4973954;28;20209;-44
2022/03/02 06:03:49;;;;;;;54.97;30.73;;;;;;;-2.48;100.00;102701.59;4974120;28;20162;-44
2022/03/02 06:06:15;;;;;;;52.33;28.75;;;;;;;-2.38;100.00;102689.81;4973961;28;20194;-45
2022/03/02 06:08:42;;;;;;;59.03;31.88;;;;;;;-2.31;100.00;102700.63;4974016;28;20555;-46
2022/03/02 06:11:08;;;;;;;59.88;31.95;;;;;;;-2.33;100.00;102714.53;4974158;28;20239;-45
2022/03/02 06:13:34;;;;;;;55.13;28.98;;;;;;;-2.30;100.00;102726.06;4973285;28;20170;-44
2022/03/02 06:16:00;;;;;;;50.67;27.95;;;;;;;-2.22;100.00;102730.75;4973762;28;20186;-44
2022/03/02 06:18:26;;;;;;;53.78;29.88;;;;;;;-2.25;100.00;102725.34;4973780;28;20711;-43
2022/03/02 06:20:52;;;;;;;50.28;29.05;;;;;;;-2.21;100.00;102715.06;4973324;28;20210;-44
2022/03/02 06:23:21;;;;;;;60.63;32.13;;;;;;;-2.31;100.00;102726.00;4973942;28;20178;-44
2022/03/02 06:25:47;;;;;;;56.15;29.65;;;;;;;-2.43;100.00;102725.44;4973584;28;20174;-44
2022/03/02 06:28:14;;;;;;;56.38;29.23;;;;;;;-2.37;100.00;102733.59;4973741;28;20166;-43
2022/03/02 06:30:40;;;;;;;59.08;29.92;;;;;;;-2.23;100.00;102747.31;4956377;28;20911;-43
2022/03/02 06:33:05;;;;;;;56.13;30.25;;;;;;;-2.24;100.00;102740.28;4972869;28;20313;-43
2022/03/02 06:35:31;;;;;;;54.35;31.13;;;;;;;-2.15;100.00;102738.06;4973468;28;20197;-43
2022/03/02 06:37:56;;;;;;;63.83;31.50;;;;;;;-2.16;100.00;102737.19;4973711;28;20217;-44
2022/03/02 06:40:22;;;;;;;60.08;31.50;;;;;;;-2.09;100.00;102736.63;4973701;28;20178;-43
2022/03/02 06:42:59;;;;;;;60.88;32.83;;;;;;;-2.00;100.00;102733.50;4972877;28;20241;-44
2022/03/02 06:45:59;;;;;;;57.17;32.47;;;;;;;-1.88;100.00;102733.13;4973343;28;20182;-45
2022/03/02 06:48:34;;;;;;;56.60;30.65;;;;;;;-1.68;100.00;102727.00;4973704;28;20625;-44
2022/03/02 06:51:01;;;;;;;67.10;33.35;;;;;;;-1.69;100.00;102724.31;4973399;28;20302;-45
2022/03/02 06:53:32;;;;;;;58.42;32.45;;;;;;;-1.66;100.00;102734.97;4934896;28;20277;-45
2022/03/02 06:56:00;;;;;;;50.40;29.60;;;;;;;-1.50;100.00;102728.63;4972456;28;20178;-44
2022/03/02 06:58:28;;;;;;;55.92;28.75;;;;;;;-1.47;100.00;102742.78;4973699;28;20266;-44
2022/03/02 07:00:56;;;;;;;53.15;30.13;;;;;;;-1.40;100.00;102745.66;4981660;28;20235;-45
2022/03/02 07:03:26;;;;;;;58.97;32.42;;;;;;;-1.48;100.00;102732.22;4993263;28;20304;-45
2022/03/02 07:05:53;;;;;;;61.38;34.17;;;;;;;-1.52;100.00;102725.03;4992706;28;20239;-45
2022/03/02 07:08:21;;;;;;;55.28;32.10;;;;;;;-1.33;100.00;102739.84;4992349;28;20184;-43
2022/03/02 07:10:50;;;;;;;61.60;33.58;;;;;;;-1.26;100.00;102741.88;4992338;28;20239;-43
2022/03/02 07:13:16;;;;;;;59.85;33.20;;;;;;;-1.22;100.00;102753.41;4991845;28;20213;-45
2022/03/02 07:15:42;;;;;;;62.33;35.25;;;;;;;-1.23;100.00;102743.75;4992400;28;20706;-45
2022/03/02 07:18:07;;;;;;;62.63;34.42;;;;;;;-1.14;100.00;102734.47;4979081;28;20197;-44
2022/03/02 07:20:39;;;;;;;63.45;34.65;;;;;;;-0.90;100.00;102737.19;4990576;28;20181;-45
2022/03/02 07:23:09;;;;;;;66.78;34.67;;;;;;;-0.77;100.00;102743.84;4991518;28;20605;-46
2022/03/02 07:25:37;;;;;;;63.65;37.08;;;;;;;-0.73;100.00;102747.50;4992007;28;20258;-45
2022/03/02 07:28:03;;;;;;;65.13;36.53;;;;;;;-0.54;100.00;102759.66;4991539;28;20185;-46
2022/03/02 07:30:29;;;;;;;65.07;36.90;;;;;;;-0.47;100.00;102751.13;4990748;28;20189;-44
2022/03/02 07:33:05;;;;;;;68.43;37.80;;;;;;;-0.36;100.00;102747.19;4991155;28;20193;-44
2022/03/02 07:35:35;;;;;;;87.93;41.70;;;;;;;0.01;100.00;102742.38;4992127;28;20158;-45
2022/03/02 07:38:01;;;;;;;77.18;40.55;;;;;;;0.10;100.00;102738.31;4992027;28;20220;-45
2022/03/02 07:40:26;;;;;;;82.93;40.90;;;;;;;0.24;100.00;102740.53;4992148;28;20543;-45
2022/03/02 07:42:52;;;;;;;76.43;39.65;;;;;;;0.47;100.00;102733.44;4974254;28;20239;-45
2022/03/02 07:45:18;;;;;;;88.45;43.45;;;;;;;0.90;100.00;102734.88;4974394;28;20225;-44
2022/03/02 07:47:44;;;;;;;82.35;43.63;;;;;;;1.31;100.00;102748.44;5007041;28;20180;-44
2022/03/02 07:50:11;;;;;;;83.97;43.92;;;;;;;1.64;100.00;102736.28;5006132;28;20181;-43
2022/03/02 07:52:38;;;;;;;87.57;44.55;;;;;;;1.98;100.00;102750.44;4991509;28;20201;-45
2022/03/02 07:55:10;;;;;;;76.22;43.00;;;;;;;2.29;100.00;102735.41;4991809;28;20170;-45
2022/03/02 07:57:39;;;;;;;76.22;48.33;;;;;;;2.55;100.00;102730.81;4992227;28;20436;-44
2022/03/02 08:00:06;;;;;;;68.28;42.75;;;;;;;2.76;100.00;102724.28;4992094;28;20185;-43
2022/03/02 08:02:31;;;;;;;62.58;39.33;;;;;;;2.94;100.00;102734.41;4990828;28;20193;-44
2022/03/02 08:04:58;;;;;;;63.65;37.25;;;;;;;2.99;100.00;102736.28;4991352;28;20184;-43
2022/03/02 08:07:23;;;;;;;59.53;35.97;;;;;;;3.01;99.38;102745.16;4990719;28;20605;-43
2022/03/02 08:09:52;;;;;;;55.25;34.83;;;;;;;3.07;98.08;102744.44;4991450;28;20280;-45
2022/03/02 08:12:23;;;;;;;54.05;33.50;;;;;;;3.21;96.96;102735.03;4991335;28;20567;-43
2022/03/02 08:14:50;;;;;;;51.28;32.47;;;;;;;3.10;96.04;102731.25;4991246;28;20248;-43
2022/03/02 08:17:18;;;;;;;52.35;32.80;;;;;;;3.14;95.71;102730.47;4991410;28;20660;-44
2022/03/02 08:19:46;;;;;;;52.15;33.28;;;;;;;3.40;95.05;102728.41;4991549;28;20486;-42
2022/03/02 08:22:19;;;;;;;53.38;31.67;;;;;;;3.47;94.48;102732.97;4973407;28;20197;-43
2022/03/02 08:24:53;;;;;;;48.95;31.27;;;;;;;3.51;93.69;102733.94;4991330;28;20175;-45
2022/03/02 08:27:19;;;;;;;48.50;30.30;;;;;;;3.48;93.21;102725.94;4991004;28;20219;-45
2022/03/02 08:29:52;;;;;;;52.97;31.83;;;;;;;3.78;92.54;102730.06;4991146;28;20168;-44
2022/03/02 08:32:19;;;;;;;49.85;29.70;;;;;;;3.77;91.26;102718.56;4990676;28;20189;-43
2022/03/02 08:34:46;;;;;;;49.55;30.27;;;;;;;3.58;91.28;102714.66;4990819;28;20673;-45
2022/03/02 08:37:12;;;;;;;46.30;30.05;;;;;;;3.57;90.81;102731.41;4991229;28;20554;-44
2022/03/02 08:39:37;;;;;;;44.13;30.08;;;;;;;3.94;90.41;102718.91;4990746;28;20175;-44
2022/03/02 08:42:03;;;;;;;46.67;29.55;;;;;;;3.79;89.58;102715.97;4990372;28;20228;-44
2022/03/02 08:44:29;;;;;;;46.83;28.95;;;;;;;4.15;89.64;102723.72;4990811;28;20166;-44
2022/03/02 08:46:55;;;;;;;51.25;31.77;;;;;;;4.37;88.87;102732.09;4990877;28;20165;-45
2022/03/02 08:49:21;;;;;;;45.53;28.63;;;;;;;4.01;88.83;102728.78;4991132;28;20193;-45
2022/03/02 08:51:49;;;;;;;44.20;28.10;;;;;;;3.89;89.25;102732.09;4973044;28;20208;-46
2022/03/02 08:54:17;;;;;;;41.92;27.10;;;;;;;3.95;88.96;102727.75;4990750;28;20224;-44
2022/03/02 08:56:43;;;;;;;42.05;27.98;;;;;;;4.17;88.47;102722.00;4990861;28;20646;-46
2022/03/02 08:59:13;;;;;;;46.33;28.65;;;;;;;3.89;88.60;102736.47;4990506;28;20268;-45
2022/03/02 09:01:43;;;;;;;41.60;27.33;;;;;;;3.77;88.88;102731.84;4990506;28;20233;-44
2022/03/02 09:04:13;;;;;;;44.78;27.95;;;;;;;4.12;89.01;102729.00;4990458;28;20169;-45
2022/03/02 09:06:39;;;;;;;45.08;27.80;;;;;;;4.13;88.41;102725.44;4990449;28;20193;-41
2022/03/02 09:09:05;;;;;;;38.35;25.25;;;;;;;3.72;88.29;102731.75;4990906;28;20173;-41
2022/03/02 09:11:30;;;;;;;46.05;25.88;;;;;;;3.63;87.98;102728.91;4990340;28;20217;-44
2022/03/02 09:13:56;;;;;;;42.67;27.42;;;;;;;3.63;88.39;102730.63;4990541;28;20204;-48
2022/03/02 09:16:22;;;;;;;43.03;27.98;;;;;;;3.44;89.74;102724.97;4991348;28;20671;-41
2022/03/02 09:18:48;;;;;;;47.97;29.88;;;;;;;3.74;89.32;102722.91;4990674;28;20280;-42
2022/03/02 09:21:14;;;;;;;39.60;25.83;;;;;;;4.31;88.02;102727.59;5006739;28;20201;-42
2022/03/02 09:23:43;;;;;;;39.80;25.83;;;;;;;4.60;86.80;102720.13;4991660;28;20207;-41
2022/03/02 09:26:12;;;;;;;42.25;26.30;;;;;;;4.36;86.18;102735.63;4991727;28;20264;-43
2022/03/02 09:28:42;;;;;;;39.72;25.73;;;;;;;4.71;85.66;102742.44;4992113;28;20193;-42
2022/03/02 09:31:09;;;;;;;41.33;25.27;;;;;;;4.40;84.96;102748.97;4991474;28;20232;-44
2022/03/02 09:33:36;;;;;;;39.45;26.88;;;;;;;4.39;85.36;102740.97;4993998;28;20185;-45
2022/03/02 09:36:05;;;;;;;35.00;24.65;;;;;;;4.08;85.57;102735.97;4989398;28;20178;-44
2022/03/02 09:38:33;;;;;;;41.55;24.65;;;;;;;3.87;86.20;102736.47;4990373;28;20232;-46
2022/03/02 09:41:05;;;;;;;39.80;26.67;;;;;;;3.82;87.44;102747.84;4988508;28;20197;-45
2022/03/02 09:43:32;;;;;;;43.50;27.58;;;;;;;3.71;87.99;102747.59;4972257;28;20177;-41
2022/03/02 09:46:04;;;;;;;41.25;26.33;;;;;;;3.66;87.97;102746.63;4991400;28;20212;-44
2022/03/02 09:48:36;;;;;;;39.83;27.10;;;;;;;3.50;88.23;102733.03;4991933;28;20189;-44
2022/03/02 09:51:05;;;;;;;45.10;27.85;;;;;;;3.62;88.37;102720.91;4995254;28;20299;-42
2022/03/02 09:53:33;;;;;;;39.47;25.35;;;;;;;3.75;88.21;102716.75;4990078;28;20172;-44
2022/03/02 09:56:06;;;;;;;38.38;25.15;;;;;;;3.50;87.60;102726.88;4991336;28;20744;-43
2022/03/02 09:58:37;;;;;;;41.83;25.83;;;;;;;3.45;87.57;102721.44;4990828;28;20192;-45
2022/03/02 10:01:05;;;;;;;41.25;26.92;;;;;;;3.60;87.26;102718.22;4991816;28;20697;-42
2022/03/02 10:03:38;;;;;;;42.33;25.70;;;;;;;3.51;87.34;102715.38;4991317;28;20255;-43
2022/03/02 10:06:05;;;;;;;43.15;26.40;;;;;;;3.60;87.54;102725.28;4994070;28;20197;-42
2022/03/02 10:08:35;;;;;;;40.85;26.95;;;;;;;3.82;87.54;102716.00;4989773;28;20739;-43
2022/03/02 10:11:06;;;;;;;39.58;26.38;;;;;;;4.03;86.70;102703.19;4990514;28;20189;-42
2022/03/02 10:13:35;;;;;;;41.78;25.58;;;;;;;3.78;86.97;102722.13;4990384;28;20600;-41
2022/03/02 10:16:03;;;;;;;43.80;26.17;;;;;;;3.83;87.29;102721.34;5004988;28;20173;-46
2022/03/02 10:18:34;;;;;;;38.58;25.10;;;;;;;3.80;86.79;102713.31;4990935;28;20225;-45
2022/03/02 10:21:02;;;;;;;41.92;26.52;;;;;;;3.78;86.70;102716.81;4991090;28;20240;-45
2022/03/02 10:23:35;;;;;;;40.70;25.67;;;;;;;3.69;86.54;102713.09;4990676;28;20253;-42
2022/03/02 10:26:26;;;;;;;39.70;25.35;;;;;;;3.77;86.13;102715.94;4990744;28;20256;-45
2022/03/02 10:29:00;;;;;;;39.25;25.08;;;;;;;3.83;85.50;102712.53;4990221;28;20182;-44
2022/03/02 10:31:44;;;;;;;42.65;25.73;;;;;;;3.85;85.63;102714.34;4994564;28;20255;-43
2022/03/02 10:34:30;;;;;;;39.35;25.00;;;;;;;3.77;85.89;102715.94;4994592;28;20641;-45
2022/03/02 10:37:03;;;;;;;39.42;25.17;;;;;;;4.11;85.53;102709.53;4993972;28;20153;-45
2022/03/02 10:39:28;;;;;;;38.17;25.52;;;;;;;3.96;85.67;102717.19;4994105;28;20193;-45
2022/03/02 10:41:59;;;;;;;37.83;26.15;;;;;;;3.89;85.83;102716.19;4993955;28;20576;-41
2022/03/02 10:44:55;;;;;;;41.80;26.50;;;;;;;4.04;85.59;102698.75;4994310;28;20176;-45
2022/03/02 10:47:24;;;;;;;38.45;25.85;;;;;;;3.70;87.01;102704.31;4993572;28;20173;-43
2022/03/02 10:49:52;;;;;;;43.30;27.17;;;;;;;3.58;86.88;102705.81;4994146;28;20177;-45
2022/03/02 10:52:21;;;;;;;43.42;26.40;;;;;;;3.52;86.90;102706.59;4993287;28;20197;-40
2022/03/02 10:54:49;;;;;;;38.20;25.35;;;;;;;3.62;87.13;102699.72;4992503;28;20232;-44
2022/03/02 10:57:18;;;;;;;42.92;27.45;;;;;;;3.64;86.79;102704.19;4995189;28;20189;-44
2022/03/02 10:59:44;;;;;;;43.03;26.67;;;;;;;3.87;86.92;102711.69;4992553;28;20200;-44
2022/03/02 11:02:10;;;;;;;44.67;27.85;;;;;;;3.74;86.47;102714.97;4992978;28;20212;-42
2022/03/02 11:04:40;;;;;;;37.67;25.65;;;;;;;3.59;86.74;102712.91;4993556;28;20157;-40
2022/03/02 11:07:06;;;;;;;43.08;27.85;;;;;;;3.55;87.64;102701.34;4993405;28;20739;-43
2022/03/02 11:09:34;;;;;;;41.85;28.10;;;;;;;3.57;88.58;102706.69;4991884;28;20174;-41